Latest Weather Observations for Tuggeranong

IDN60901

Issued at 1:41 pm EST Thursday 1 September 2016 (issued every 10 minutes, with the page automatically refreshed every 10 minutes)

About weather observations | Map of Canberra area stations | Latest observations for Canberra area | Other Formats
Station Details ID: 070339 Name: TUGGERANONG (ISABELLA PLAINS) AWS Lat: -35.42 Lon: 149.09 Height: 586.7 m
Data from the previous 72 hours. | See also: Recent months at Tuggeranong
Date/Time
EST
Temp
°C
App
Temp
°C
Dew
Point
°C
Rel
Hum
%
Delta-T
°C
Wind Press
QNH
hPa
Press
MSL
hPa
Rain since
9am
mm
Dir  Spd
km/h
Gust
km/h
Spd
kts
Gust
kts
01/01:30pm 15.8 12.1 4.2 46 5.6 NNE 13 22 7 12 1016.3 1016.1 0.0
01/01:00pm 15.5 11.8 4.3 47 5.4 NNE 13 19 7 10 1016.6 1016.5 0.0
01/12:30pm 16.0 12.3 4.4 46 5.6 NNE 13 19 7 10 1016.9 1016.8 0.0
01/12:00pm 15.7 12.8 4.4 47 5.4 NNE 9 17 5 9 1017.6 1017.4 0.0
01/11:30am 15.3 11.9 4.1 47 5.3 N 11 19 6 10 1017.8 1017.6 0.0
01/11:00am 15.2 12.4 5.1 51 4.9 N 9 13 5 7 1018.5 1018.4 0.0
01/10:30am 14.6 12.5 3.7 48 5.1 N 4 11 2 6 1019.0 1018.9 0.0
01/10:00am 14.0 11.2 5.1 55 4.3 WNW 9 13 5 7 1019.4 1019.2 0.0
01/09:30am 13.6 11.1 4.5 54 4.3 N 7 13 4 7 1019.7 1020.4 0.0
01/09:00am 12.7 9.7 6.1 64 3.2 N 11 17 6 9 1019.8 1020.5 0.2
01/08:30am 12.4 9.2 5.3 62 3.4 NW 11 15 6 8 1019.7 1020.4 0.2
01/08:00am 10.4 9.5 6.0 74 2.1 CALM 0 6 0 3 1019.4 1020.1 0.2
01/07:30am 8.9 6.3 6.0 82 1.4 ESE 9 11 5 6 1019.3 1020.0 0.2
01/07:00am 7.5 5.7 5.5 87 0.9 E 4 9 2 5 1018.9 1019.7 0.2
01/06:30am 7.6 5.0 4.2 79 1.5 NNW 7 11 4 6 1018.7 1019.4 0.2
01/06:00am 9.0 6.4 4.4 73 2.1 NW 7 11 4 6 1018.4 1019.1 0.2
01/05:30am 6.3 4.5 5.3 93 0.5 E 4 9 2 5 1018.4 1019.1 0.2
01/05:00am 6.0 4.8 4.6 91 0.6 CALM 0 6 0 3 1018.3 1019.0 0.2
01/04:30am 6.9 5.8 5.1 88 0.8 CALM 0 0 0 0 1018.1 1018.8 0.2
01/04:00am 7.1 5.2 4.9 86 1.0 E 4 7 2 4 1018.2 1018.9 0.2
01/03:30am 8.1 6.9 4.7 79 1.6 CALM 0 6 0 3 1018.2 1018.9 0.2
01/03:00am 9.4 5.9 5.6 77 1.8 NW 13 19 7 10 1018.3 1019.0 0.2
01/02:30am 9.0 5.8 5.0 76 1.9 NW 11 15 6 8 1018.4 1019.1 0.2
01/02:00am 9.3 6.5 5.1 75 2.0 NNW 9 13 5 7 1018.6 1019.3 0.2
01/01:30am 9.1 6.2 4.9 75 1.9 NNW 9 13 5 7 1018.7 1019.4 0.2
01/01:00am 9.3 6.9 5.1 75 2.0 N 7 11 4 6 1018.4 1019.1 0.2
01/12:30am 10.1 7.4 5.7 74 2.1 NNE 9 13 5 7 1018.2 1018.9 0.2
01/12:00am 10.1 7.5 6.1 76 1.9 ENE 9 13 5 7 1018.0 1018.7 0.2
 
Date/Time
EST
Temp
°C
App
Temp
°C
Dew
Point
°C
Rel
Hum
%
Delta-T
°C
Wind Press
QNH
hPa
Press
MSL
hPa
Rain since
9am
mm
Dir  Spd
km/h
Gust
km/h
Spd
kts
Gust
kts
31/11:30pm 9.7 7.5 6.4 80 1.6 ENE 7 9 4 5 1018.1 1018.8 0.2
31/11:00pm 9.9 7.3 6.1 77 1.8 NW 9 13 5 7 1018.0 1018.7 0.2
31/10:30pm 11.5 9.3 6.0 69 2.7 NW 7 13 4 7 1017.9 1018.6 0.2
31/10:00pm 10.9 8.3 6.3 73 2.2 NNW 9 13 5 7 1017.7 1018.4 0.2
31/09:30pm 11.6 8.7 6.5 71 2.5 NNW 11 15 6 8 1017.7 1018.4 0.2
31/09:00pm 11.0 9.0 6.9 76 2.0 NNE 7 11 4 6 1017.6 1018.3 0.2
31/08:30pm 11.7 9.6 6.8 72 2.4 NNW 7 13 4 7 1017.3 1018.0 0.2
31/08:00pm 12.2 9.4 6.9 70 2.6 NW 11 17 6 9 1017.1 1017.8 0.2
31/07:30pm 12.2 9.5 7.5 73 2.4 WNW 11 17 6 9 1016.9 1017.6 0.2
31/07:00pm 12.4 9.4 7.5 72 2.5 WNW 13 17 7 9 1016.6 1017.3 0.2
31/06:30pm 12.9 11.0 7.4 69 2.8 NW 7 11 4 6 1016.4 1017.1 0.2
31/06:00pm 13.4 10.9 6.7 64 3.3 NW 9 15 5 8 1016.1 1016.8 0.2
31/05:30pm 14.3 11.1 6.9 61 3.7 NW 13 17 7 9 1015.7 1016.3 0.2
31/05:00pm 15.6 12.5 7.1 57 4.3 NW 13 22 7 12 1014.8 1015.5 0.2
31/04:30pm 15.0 11.1 7.1 59 4.0 WSW 17 24 9 13 1014.6 1015.3 0.2
31/04:00pm 17.2 13.8 7.5 53 5.0 WNW 15 24 8 13 1014.0 1014.6 0.2
31/03:30pm 17.0 13.9 8.7 58 4.4 NW 15 26 8 14 1013.5 1014.2 0.2
31/03:00pm 17.0 13.4 9.9 63 3.9 WNW 19 28 10 15 1013.7 1014.4 0.2
31/02:30pm 16.2 13.5 11.6 74 2.6 NW 17 26 9 14 1013.7 1014.4 0.2
31/02:00pm 15.3 13.6 12.4 83 1.6 NNW 13 20 7 11 1014.0 1014.6 0.2
31/01:30pm 14.8 12.4 12.7 87 1.2 NNW 17 26 9 14 1014.3 1014.9 0.2
31/01:00pm 13.9 11.5 12.6 92 0.7 NNW 17 24 9 13 1014.6 1015.3 0.2
31/12:30pm 13.6 11.0 13.3 98 0.2 NNW 19 32 10 17 1014.8 1015.5 0.2
31/12:00pm 13.6 10.4 12.0 90 0.9 N 20 32 11 17 1015.2 1015.9 0.2
31/11:30am 13.8 10.8 12.0 89 1.0 N 19 33 10 18 1015.8 1016.4 0.2
31/11:00am 13.5 10.3 11.9 90 0.9 N 20 33 11 18 1016.1 1016.8 0.2
31/10:30am 13.9 12.4 13.1 95 0.5 NNW 13 28 7 15 1015.9 1016.5 0.2
31/10:00am 13.0 11.1 13.0 100 0.0 N 15 26 8 14 1016.6 1017.3 0.2
31/09:30am 12.8 10.4 12.8 100 0.0 NNW 17 24 9 13 1016.9 1017.6 0.0
31/09:00am 12.7 11.1 12.7 100 0.0 NNW 13 20 7 11 1017.3 1018.0 9.4
31/08:30am 12.5 11.2 12.5 100 0.0 NW 11 20 6 11 1017.0 1017.7 9.2
31/08:00am 12.4 10.7 12.4 100 0.0 N 13 20 7 11 1017.2 1017.9 8.2
31/07:30am 12.4 11.1 12.4 100 0.0 N 11 17 6 9 1017.1 1017.8 6.8
31/07:00am 12.3 10.9 12.3 100 0.0 N 11 19 6 10 1017.3 1018.0 6.0
31/06:30am 12.3 9.8 12.3 100 0.0 N 17 24 9 13 1017.7 1018.4 4.8
31/06:00am 12.4 9.9 12.4 100 0.0 N 17 26 9 14 1017.8 1018.5 4.4
31/05:30am 12.4 9.9 12.4 100 0.0 N 17 30 9 16 1018.0 1018.7 3.8
31/05:00am 12.5 9.4 12.3 99 0.1 N 20 32 11 17 1017.8 1018.5 3.0
31/04:30am 12.5 10.0 12.2 98 0.2 N 17 28 9 15 1017.7 1018.4 1.0
31/04:00am 12.8 9.6 11.4 91 0.8 NNW 19 35 10 19 1017.7 1018.4 0.2
31/03:30am 13.7 10.1 10.5 81 1.7 NNW 20 32 11 17 1017.5 1018.2 0.0
31/03:00am 13.8 11.1 10.2 79 1.9 NNW 15 24 8 13 1017.5 1018.2 0.0
31/02:30am 14.0 10.9 10.2 78 2.0 NNW 17 26 9 14 1018.1 1018.8 0.0
31/02:00am 13.9 11.5 10.1 78 2.0 NNW 13 19 7 10 1018.7 1019.4 0.0
31/01:30am 13.8 11.4 10.0 78 2.0 N 13 22 7 12 1019.3 1020.0 0.0
31/01:00am 13.7 11.6 9.9 78 2.0 N 11 20 6 11 1019.5 1020.2 0.0
31/12:30am 13.6 11.1 9.8 78 2.0 N 13 19 7 10 1020.2 1020.9 0.0
31/12:00am 13.6 11.1 9.6 77 2.1 N 13 20 7 11 1020.2 1020.9 0.0
 
Date/Time
EST
Temp
°C
App
Temp
°C
Dew
Point
°C
Rel
Hum
%
Delta-T
°C
Wind Press
QNH
hPa
Press
MSL
hPa
Rain since
9am
mm
Dir  Spd
km/h
Gust
km/h
Spd
kts
Gust
kts
30/11:30pm 13.6 11.4 9.5 76 2.2 N 11 17 6 9 1020.6 1021.4 0.0
30/11:00pm 12.9 11.7 10.4 85 1.3 N 7 19 4 10 1021.1 1021.8 0.0
30/10:30pm 10.7 10.4 8.5 86 1.1 CALM 0 0 0 0 1021.3 1022.0 0.0
30/10:00pm 10.4 9.8 7.6 83 1.4 CALM 0 0 0 0 1021.3 1022.0 0.0
30/09:30pm 11.3 10.9 8.2 81 1.6 CALM 0 0 0 0 1021.4 1022.1 0.0
30/09:00pm 12.1 11.7 8.4 78 1.9 CALM 0 0 0 0 1021.2 1021.9 0.0
30/08:30pm 12.5 12.0 8.0 74 2.3 CALM 0 0 0 0 1021.6 1022.3 0.0
30/08:00pm 13.3 12.5 8.2 71 2.6 N 2 7 1 4 1021.5 1022.2 0.0
30/07:30pm 13.8 12.2 8.2 69 2.9 N 6 7 3 4 1021.5 1022.2 0.0
30/07:00pm 14.0 12.5 8.4 69 2.9 E 6 9 3 5 1020.9 1021.7 0.0
30/06:30pm 13.3 12.7 7.3 67 3.0 CALM 0 0 0 0 1021.7 1022.4 0.0
30/06:00pm 14.3 13.6 7.1 62 3.6 CALM 0 0 0 0 1021.7 1022.4 0.0
30/05:30pm 15.5 14.2 7.5 59 4.1 NW 4 9 2 5 1021.5 1022.2 0.0
30/05:00pm 16.2 14.2 7.2 55 4.6 NNW 7 13 4 7 1021.2 1021.9 0.0
30/04:30pm 16.7 13.0 6.5 51 5.2 NNW 15 24 8 13 1021.3 1022.0 0.0
30/04:00pm 17.8 13.2 6.7 48 5.7 N 20 28 11 15 1021.3 1022.0 0.0
30/03:30pm 17.7 13.0 5.9 46 5.9 N 20 30 11 16 1021.3 1022.0 0.0
30/03:00pm 17.6 12.7 5.2 44 6.1 NNW 20 32 11 17 1021.7 1022.4 0.0
30/02:30pm 18.0 13.6 4.6 41 6.6 NNW 17 28 9 15 1021.8 1022.6 0.0
30/02:00pm 18.2 13.8 4.7 41 6.6 NNW 17 24 9 13 1022.1 1022.9 0.0
30/01:30pm 17.7 13.5 3.9 40 6.7 NW 15 22 8 12 1022.5 1023.3 0.0
30/01:00pm 17.5 13.1 2.7 37 7.0 NNW 15 22 8 12 1023.2 1024.0 0.0
30/12:30pm 16.4 12.6 4.1 44 5.9 N 13 19 7 10 1023.8 1024.6 0.0
30/12:00pm 15.1 11.0 2.3 42 5.9 N 13 19 7 10 1024.1 1024.9 0.0
30/11:30am 14.5 10.6 3.6 48 5.1 NNE 13 19 7 10 1025.0 1025.8 0.0
30/11:00am 13.1 12.1 5.8 61 3.5 CALM 0 7 0 4 1025.7 1026.5 0.0
30/10:30am 12.0 10.5 5.0 62 3.3 W 2 9 1 5 1026.0 1026.8 0.0
30/10:00am 11.6 10.4 4.8 63 3.2 CALM 0 0 0 0 1025.9 1026.7 0.0
30/09:30am 9.0 6.8 5.4 78 1.7 SW 6 7 3 4 1025.9 1026.7 0.0
30/09:00am 7.2 6.0 4.7 84 1.1 CALM 0 0 0 0 1025.8 1026.6 0.0
30/08:30am 6.3 5.2 4.9 91 0.6 CALM 0 0 0 0 1026.1 1027.0 0.0
30/08:00am 5.5 4.3 4.8 95 0.3 CALM 0 0 0 0 1026.7 1027.5 0.0
30/07:30am 4.9 3.7 4.6 98 0.1 CALM 0 0 0 0 1026.1 1027.0 0.0
30/07:00am 3.9 2.2 3.8 99 0.0 NE 2 6 1 3 1025.8 1026.6 0.0
30/06:30am 3.2 1.7 2.8 97 0.2 CALM 0 0 0 0 1025.6 1026.4 0.0
30/06:00am 3.4 1.9 3.0 97 0.2 CALM 0 0 0 0 1025.3 1026.1 0.0
30/05:30am 3.4 1.8 2.7 95 0.3 CALM 0 0 0 0 1025.6 1026.4 0.0
30/05:00am 4.1 2.6 3.2 94 0.4 CALM 0 0 0 0 1025.2 1026.0 0.0
30/04:30am 4.1 2.7 3.4 95 0.3 CALM 0 0 0 0 1025.2 1026.0 0.0
30/04:00am 4.2 2.7 3.2 93 0.4 CALM 0 0 0 0 1025.1 1025.9 0.0
30/03:30am 4.3 2.8 3.1 92 0.5 CALM 0 0 0 0 1025.1 1025.9 0.0
30/03:00am 4.4 2.9 3.1 91 0.5 CALM 0 0 0 0 1025.0 1025.8 0.0
30/02:30am 5.2 3.8 3.5 89 0.7 CALM 0 0 0 0 1024.8 1025.6 0.0
30/02:00am 5.5 4.1 3.5 87 0.9 CALM 0 4 0 2 1025.3 1026.1 0.0
30/01:30am 5.3 3.9 3.6 89 0.7 CALM 0 0 0 0 1025.6 1026.4 0.0
30/01:00am 5.2 3.8 3.5 89 0.7 CALM 0 0 0 0 1025.5 1026.3 0.0
30/12:30am 5.8 4.4 3.8 87 0.9 CALM 0 0 0 0 1025.8 1026.6 0.0
30/12:00am 5.6 4.2 3.8 88 0.8 CALM 0 0 0 0 1026.2 1027.1 0.0
 
Date/Time
EST
Temp
°C
App
Temp
°C
Dew
Point
°C
Rel
Hum
%
Delta-T
°C
Wind Press
QNH
hPa
Press
MSL
hPa
Rain since
9am
mm
Dir  Spd
km/h
Gust
km/h
Spd
kts
Gust
kts
29/11:30pm 5.4 4.0 3.6 88 0.8 CALM 0 0 0 0 1026.6 1027.4 0.0
29/11:00pm 5.6 4.2 3.3 85 1.0 CALM 0 0 0 0 1026.1 1027.0 0.0
29/10:30pm 5.9 4.4 3.2 83 1.2 CALM 0 0 0 0 1026.2 1027.1 0.0
29/10:00pm 6.1 4.6 3.1 81 1.3 CALM 0 0 0 0 1026.1 1027.0 0.0
29/09:30pm 6.7 5.3 3.3 79 1.5 CALM 0 0 0 0 1026.3 1027.2 0.0
29/09:00pm 7.2 5.4 3.4 77 1.7 E 2 7 1 4 1026.2 1027.1 0.0
29/08:30pm 7.2 4.7 3.6 78 1.6 ENE 6 7 3 4 1025.8 1026.6 0.0
29/08:00pm 7.5 4.8 3.6 76 1.7 E 7 9 4 5 1025.4 1026.2 0.0
29/07:30pm 8.4 5.9 3.8 73 2.1 ENE 6 9 3 5 1025.3 1026.1 0.0
29/07:00pm 8.4 5.8 4.0 74 2.0 ENE 7 7 4 4 1024.9 1025.7 0.0
29/06:30pm 9.8 8.5 4.0 67 2.6 CALM 0 0 0 0 1024.9 1025.7 0.0
29/06:00pm 10.8 9.4 3.4 60 3.3 CALM 0 0 0 0 1024.6 1025.5 0.0
29/05:30pm 13.2 10.9 2.7 49 4.8 NNW 4 7 2 4 1024.5 1025.3 0.0
29/05:00pm 14.2 11.4 3.1 47 5.1 N 7 11 4 6 1024.5 1025.3 0.0
29/04:30pm 14.5 11.6 2.7 45 5.4 NNE 7 11 4 6 1024.2 1025.0 0.0
29/04:00pm 14.8 11.5 2.7 44 5.6 N 9 13 5 7 1024.5 1025.3 0.0
29/03:30pm 15.3 11.6 2.1 41 6.0 N 11 17 6 9 1024.4 1025.2 0.0
29/03:00pm 14.8 10.9 1.3 40 6.0 N 11 17 6 9 1024.3 1025.1 0.0
29/02:30pm 15.0 11.3 2.5 43 5.8 N 11 17 6 9 1024.5 1025.3 0.0
29/02:00pm 15.1 11.7 2.0 41 5.9 N 9 15 5 8 1024.8 1025.6 0.0

Latest Capital City Observations: Canberra | Sydney | Melbourne | Brisbane | Adelaide | Perth | Hobart | Darwin

Other Formats:

Comma delimited format used in spreadsheet applications
http://www.bom.gov.au/fwo/IDN60903/IDN60903.94925.axf

JavaScript Object Notation format (JSON) in row-major order
http://www.bom.gov.au/fwo/IDN60903/IDN60903.94925.json